createdAt,value
2018-12-04T00:01:15.446Z,9.22
2018-12-04T00:03:57.857Z,9.19
2018-12-04T00:06:40.238Z,9.21
2018-12-04T00:09:09.429Z,9.24
2018-12-04T00:11:38.498Z,9.27
2018-12-04T00:14:07.622Z,9.30
2018-12-04T00:16:36.818Z,9.34
2018-12-04T00:19:06.942Z,9.37
2018-12-04T00:21:35.955Z,9.35
2018-12-04T00:24:05.031Z,9.30
2018-12-04T00:26:34.078Z,9.24
2018-12-04T00:29:03.111Z,9.17
2018-12-04T00:31:32.184Z,9.10
2018-12-04T00:34:01.258Z,9.02
2018-12-04T00:36:30.315Z,9.03
2018-12-04T00:38:59.578Z,9.07
2018-12-04T00:41:28.663Z,9.11
2018-12-04T00:43:57.687Z,9.12
2018-12-04T00:46:26.758Z,9.13
2018-12-04T00:48:55.777Z,9.14
2018-12-04T00:51:24.807Z,9.11
2018-12-04T00:53:53.856Z,9.11
2018-12-04T00:56:22.938Z,9.12
2018-12-04T00:58:52.051Z,9.12
2018-12-04T01:01:21.993Z,9.09
2018-12-04T01:03:51.064Z,9.09
2018-12-04T01:06:20.172Z,9.06
2018-12-04T01:08:49.186Z,9.05
2018-12-04T01:11:18.224Z,9.03
2018-12-04T01:13:47.284Z,8.99
2018-12-04T01:16:16.412Z,8.93
2018-12-04T01:18:45.430Z,8.94
2018-12-04T01:21:14.479Z,8.96
2018-12-04T01:23:43.726Z,8.96
2018-12-04T01:26:12.755Z,8.93
2018-12-04T01:28:41.815Z,8.85
2018-12-04T01:31:10.862Z,8.72
2018-12-04T01:33:39.900Z,8.61
2018-12-04T01:36:08.940Z,8.53
2018-12-04T01:38:37.971Z,8.48
2018-12-04T01:41:07.038Z,8.42
2018-12-04T01:43:36.189Z,8.37
2018-12-04T01:46:05.283Z,8.33
2018-12-04T01:48:34.479Z,8.29
2018-12-04T01:51:04.085Z,8.24
2018-12-04T01:53:36.156Z,8.13
2018-12-04T01:56:05.228Z,8.03
2018-12-04T01:58:34.244Z,7.93
2018-12-04T02:01:03.287Z,7.88
2018-12-04T02:03:32.321Z,7.83
2018-12-04T02:06:01.324Z,7.75
2018-12-04T02:08:30.517Z,7.65
2018-12-04T02:10:59.644Z,7.55
2018-12-04T02:13:28.662Z,7.48
2018-12-04T02:15:57.738Z,7.41
2018-12-04T02:18:26.855Z,7.38
2018-12-04T02:20:55.904Z,7.32
2018-12-04T02:23:24.996Z,7.27
2018-12-04T02:25:53.995Z,7.23
2018-12-04T02:28:27.063Z,7.18
2018-12-04T02:30:56.095Z,7.08
2018-12-04T02:33:25.318Z,6.93
2018-12-04T02:35:54.464Z,6.86
2018-12-04T02:38:23.555Z,6.81
2018-12-04T02:40:52.617Z,6.75
2018-12-04T02:43:21.723Z,6.73
2018-12-04T02:45:50.834Z,6.73
2018-12-04T02:48:19.911Z,6.72
2018-12-04T02:50:48.987Z,6.71
2018-12-04T02:53:18.212Z,6.66
2018-12-04T02:55:47.306Z,6.61
2018-12-04T02:58:16.400Z,6.56
2018-12-04T03:00:45.510Z,6.52
2018-12-04T03:03:14.694Z,6.47
2018-12-04T03:05:43.792Z,6.36
2018-12-04T03:08:13.905Z,6.25
2018-12-04T03:10:42.945Z,6.18
2018-12-04T03:13:12.018Z,6.12
2018-12-04T03:15:41.069Z,6.07
2018-12-04T03:18:10.178Z,6.03
2018-12-04T03:20:39.284Z,5.99
2018-12-04T03:23:08.358Z,5.98
2018-12-04T03:25:37.579Z,6.01
2018-12-04T03:28:06.701Z,6.01
2018-12-04T03:30:36.175Z,6.03
2018-12-04T03:33:05.276Z,6.02
2018-12-04T03:35:34.448Z,6.03
2018-12-04T03:38:03.565Z,6.05
2018-12-04T03:40:32.659Z,6.03
2018-12-04T03:43:02.368Z,6.01
2018-12-04T03:45:31.464Z,6.00
2018-12-04T03:48:00.534Z,6.00
2018-12-04T03:50:29.576Z,6.00
2018-12-04T03:52:58.726Z,6.01
2018-12-04T03:55:27.784Z,6.03
2018-12-04T03:58:03.084Z,6.02
2018-12-04T04:00:32.290Z,5.95
2018-12-04T04:03:01.309Z,5.86
2018-12-04T04:05:30.379Z,5.80
2018-12-04T04:07:59.519Z,5.81
2018-12-04T04:10:29.360Z,5.79
2018-12-04T04:12:58.385Z,5.76
2018-12-04T04:15:27.445Z,5.72
2018-12-04T04:17:56.495Z,5.68
2018-12-04T04:20:25.586Z,5.64
2018-12-04T04:22:54.638Z,5.58
2018-12-04T04:25:23.652Z,5.50
2018-12-04T04:27:52.704Z,5.36
2018-12-04T04:30:21.739Z,5.30
2018-12-04T04:32:50.807Z,5.24
2018-12-04T04:35:20.445Z,5.21
2018-12-04T04:37:49.443Z,5.22
2018-12-04T04:40:19.304Z,5.23
2018-12-04T04:42:48.322Z,5.25
2018-12-04T04:45:17.416Z,5.24
2018-12-04T04:47:46.411Z,5.23
2018-12-04T04:50:15.430Z,5.20
2018-12-04T04:52:44.459Z,5.18
2018-12-04T04:55:13.553Z,5.16
2018-12-04T04:57:42.648Z,5.14
2018-12-04T05:00:12.043Z,5.06
2018-12-04T05:02:41.221Z,4.98
2018-12-04T05:05:10.243Z,4.93
2018-12-04T05:07:39.273Z,4.93
2018-12-04T05:10:08.459Z,4.90
2018-12-04T05:12:37.616Z,4.86
2018-12-04T05:15:07.738Z,4.80
2018-12-04T05:17:36.836Z,4.73
2018-12-04T05:20:07.622Z,4.68
2018-12-04T05:22:36.944Z,4.58
2018-12-04T05:25:06.957Z,4.48
2018-12-04T05:27:37.249Z,4.43
2018-12-04T05:30:07.162Z,4.41
2018-12-04T05:32:36.681Z,4.40
2018-12-04T05:35:05.839Z,4.41
2018-12-04T05:37:34.896Z,4.38
2018-12-04T05:40:04.054Z,4.36
2018-12-04T05:42:33.098Z,4.33
2018-12-04T05:45:02.826Z,4.33
2018-12-04T05:47:32.532Z,4.32
2018-12-04T05:50:01.639Z,4.30
2018-12-04T05:52:31.215Z,4.27
2018-12-04T05:55:00.380Z,4.24
2018-12-04T05:57:29.435Z,4.24
2018-12-04T05:59:58.452Z,4.22
2018-12-04T06:02:27.590Z,4.23
2018-12-04T06:04:56.765Z,4.23
2018-12-04T06:07:25.783Z,4.20
2018-12-04T06:09:54.933Z,4.19
2018-12-04T06:12:24.223Z,4.19
2018-12-04T06:14:53.245Z,4.18
2018-12-04T06:17:22.413Z,4.18
2018-12-04T06:19:51.572Z,4.19
2018-12-04T06:22:22.786Z,4.19
2018-12-04T06:24:51.901Z,4.21
2018-12-04T06:27:20.911Z,4.22
2018-12-04T06:29:50.002Z,4.24
2018-12-04T06:32:19.095Z,4.21
2018-12-04T06:34:48.191Z,4.20
2018-12-04T06:37:17.286Z,4.18
2018-12-04T06:39:46.381Z,4.16
2018-12-04T06:42:15.474Z,4.15
2018-12-04T06:44:46.830Z,4.12
2018-12-04T06:47:13.791Z,4.15
2018-12-04T06:49:43.023Z,4.19
2018-12-04T06:52:12.108Z,4.23
2018-12-04T06:54:41.169Z,4.27
2018-12-04T06:57:10.351Z,4.31
2018-12-04T06:59:39.460Z,4.38
2018-12-04T07:02:09.398Z,4.38
2018-12-04T07:04:38.878Z,4.39
2018-12-04T07:07:07.924Z,4.40
2018-12-04T07:09:36.989Z,4.44
2018-12-04T07:12:06.099Z,4.51
2018-12-04T07:14:35.604Z,4.57
2018-12-04T07:17:04.995Z,4.57
2018-12-04T07:19:34.270Z,4.52
2018-12-04T07:22:03.494Z,4.47
2018-12-04T07:24:32.912Z,4.52
2018-12-04T07:27:02.141Z,4.57
2018-12-04T07:29:31.440Z,4.61
2018-12-04T07:32:00.940Z,4.60
2018-12-04T07:34:31.255Z,4.56
2018-12-04T07:37:00.770Z,4.52
2018-12-04T07:39:31.197Z,4.48
2018-12-04T07:42:00.538Z,4.44
2018-12-04T07:44:29.889Z,4.41
2018-12-04T07:47:01.184Z,4.35
2018-12-04T07:49:32.078Z,4.32
2018-12-04T07:52:01.785Z,4.31
2018-12-04T07:54:31.086Z,4.31
2018-12-04T07:57:00.206Z,4.28
2018-12-04T07:59:29.244Z,4.22
2018-12-04T08:01:58.334Z,4.22
2018-12-04T08:04:27.429Z,4.26
2018-12-04T08:06:56.511Z,4.28
2018-12-04T08:09:26.115Z,4.29
2018-12-04T08:11:55.131Z,4.23
2018-12-04T08:14:27.053Z,4.19
2018-12-04T08:16:56.121Z,4.16
2018-12-04T08:19:25.280Z,4.16
2018-12-04T08:21:56.157Z,4.20
2018-12-04T08:24:25.273Z,4.20
2018-12-04T08:26:54.412Z,4.21
2018-12-04T08:29:23.485Z,4.24
2018-12-04T08:31:53.598Z,4.28
2018-12-04T08:34:22.805Z,4.33
2018-12-04T08:36:52.009Z,4.39
2018-12-04T08:39:21.063Z,4.45
2018-12-04T08:41:50.189Z,4.52
2018-12-04T08:44:19.805Z,4.56
2018-12-04T08:46:48.974Z,4.59
2018-12-04T08:49:18.368Z,4.57
2018-12-04T08:51:47.492Z,4.57
2018-12-04T08:54:17.495Z,4.59
2018-12-04T08:56:46.507Z,4.63
2018-12-04T08:59:15.627Z,4.64
2018-12-04T09:01:45.459Z,4.68
2018-12-04T09:04:15.935Z,4.73
2018-12-04T09:06:45.389Z,4.75
2018-12-04T09:09:14.524Z,4.75
2018-12-04T09:11:44.293Z,4.74
2018-12-04T09:14:13.641Z,4.77
2018-12-04T09:16:42.874Z,4.78
2018-12-04T09:19:12.058Z,4.81
2018-12-04T09:21:47.381Z,4.84
2018-12-04T09:24:16.721Z,4.88
2018-12-04T09:26:46.673Z,4.94
2018-12-04T09:29:17.038Z,4.98
2018-12-04T09:31:46.318Z,5.03
2018-12-04T09:34:15.722Z,5.09
2018-12-04T09:36:45.058Z,5.19
2018-12-04T09:39:14.251Z,5.29
2018-12-04T09:41:43.622Z,5.41
2018-12-04T09:44:12.838Z,5.49
2018-12-04T09:46:43.356Z,5.57
2018-12-04T09:49:12.420Z,5.68
2018-12-04T09:51:42.243Z,5.81
2018-12-04T09:54:11.418Z,5.92
2018-12-04T09:56:40.874Z,6.05
2018-12-04T09:59:10.036Z,6.16
2018-12-04T10:01:39.236Z,6.24
2018-12-04T10:04:08.316Z,6.30
2018-12-04T10:06:40.089Z,6.42
2018-12-04T10:09:10.008Z,6.56
2018-12-04T10:11:39.401Z,6.70
2018-12-04T10:14:08.518Z,6.80
2018-12-04T10:16:37.706Z,6.89
2018-12-04T10:21:40.131Z,7.02
2018-12-04T10:24:09.297Z,7.10
2018-12-04T10:26:39.478Z,7.17
2018-12-04T10:29:08.501Z,7.27
2018-12-04T10:31:38.857Z,7.37
2018-12-04T10:34:07.946Z,7.45
2018-12-04T10:36:38.538Z,7.50
2018-12-04T10:39:08.506Z,7.56
2018-12-04T10:41:38.321Z,7.63
2018-12-04T10:44:07.571Z,7.68
2018-12-04T10:46:37.023Z,7.74
2018-12-04T10:49:06.083Z,7.77
2018-12-04T10:51:36.224Z,7.79
2018-12-04T10:54:05.309Z,7.82
2018-12-04T10:56:34.469Z,7.88
2018-12-04T10:59:03.606Z,7.94
2018-12-04T11:01:37.922Z,8.00
2018-12-04T11:04:07.265Z,8.04
2018-12-04T11:06:36.401Z,8.08
2018-12-04T11:09:08.202Z,8.14
2018-12-04T11:11:40.728Z,8.18
2018-12-04T11:14:11.074Z,8.21
2018-12-04T11:16:40.274Z,8.23
2018-12-04T11:19:09.310Z,8.21
2018-12-04T11:21:38.511Z,8.22
2018-12-04T11:24:07.733Z,8.25
2018-12-04T11:31:50.948Z,8.25
2018-12-04T11:34:20.094Z,8.33
2018-12-04T11:36:49.250Z,8.37
2018-12-04T11:39:18.393Z,8.35
2018-12-04T11:41:47.634Z,8.34
2018-12-04T11:44:16.820Z,8.34
2018-12-04T11:46:47.210Z,8.36
2018-12-04T11:49:16.282Z,8.37
2018-12-04T11:51:45.963Z,8.40
2018-12-04T11:54:15.182Z,8.44
2018-12-04T11:56:45.103Z,8.46
2018-12-04T11:59:14.360Z,8.47
2018-12-04T12:01:43.606Z,8.47
2018-12-04T12:04:17.276Z,8.44
2018-12-04T12:06:49.988Z,8.45
2018-12-04T12:09:19.291Z,8.46
2018-12-04T12:11:48.488Z,8.45
2018-12-04T12:14:17.747Z,8.46
2018-12-04T12:16:47.152Z,8.46
2018-12-04T12:19:16.766Z,8.45
2018-12-04T12:21:47.806Z,8.45
2018-12-04T12:24:17.517Z,8.44
2018-12-04T12:26:46.620Z,8.42
2018-12-04T12:29:15.780Z,8.37
2018-12-04T12:31:44.991Z,8.33
2018-12-04T12:34:14.229Z,8.31
2018-12-04T12:36:43.598Z,8.29
2018-12-04T12:39:12.831Z,8.29
2018-12-04T12:41:42.943Z,8.30
2018-12-04T12:44:12.190Z,8.31
2018-12-04T12:46:41.898Z,8.31
2018-12-04T12:51:43.465Z,8.29
2018-12-04T12:54:12.728Z,8.30
2018-12-04T12:56:49.700Z,8.33
2018-12-04T12:59:19.030Z,8.36
2018-12-04T13:01:48.282Z,8.37
2018-12-04T13:04:17.421Z,8.39
2018-12-04T13:06:46.590Z,8.39
2018-12-04T13:09:16.001Z,8.41
2018-12-04T13:11:45.274Z,8.39
2018-12-04T13:14:15.363Z,8.39
2018-12-04T13:16:44.740Z,8.38
2018-12-04T13:19:14.011Z,8.37
2018-12-04T13:21:43.218Z,8.35
2018-12-04T13:24:12.654Z,8.35
2018-12-04T13:26:42.444Z,8.37
2018-12-04T13:29:13.893Z,8.39
2018-12-04T13:31:45.541Z,8.40
2018-12-04T13:34:15.410Z,8.41
2018-12-04T13:36:44.968Z,8.41
2018-12-04T13:39:14.144Z,8.42
2018-12-04T13:41:45.421Z,8.42
2018-12-04T13:44:15.109Z,8.43
2018-12-04T13:46:44.352Z,8.43
2018-12-04T13:49:14.950Z,8.43
2018-12-04T13:51:46.121Z,8.43
2018-12-04T13:54:15.688Z,8.41
2018-12-04T13:56:46.022Z,8.39
2018-12-04T13:59:15.417Z,8.39
2018-12-04T14:01:44.707Z,8.38
2018-12-04T14:04:16.992Z,8.40
2018-12-04T14:06:43.422Z,8.41
2018-12-04T14:09:12.694Z,8.43
2018-12-04T14:11:42.435Z,8.43
2018-12-04T14:14:18.127Z,8.43
2018-12-04T14:16:48.530Z,8.44
2018-12-04T14:19:19.352Z,8.45
2018-12-04T14:21:49.294Z,8.47
2018-12-04T14:24:19.518Z,8.51
2018-12-04T14:26:49.688Z,8.54
2018-12-04T14:29:19.138Z,8.56
2018-12-04T14:31:48.482Z,8.55
2018-12-04T14:34:17.806Z,8.54
2018-12-04T14:36:48.187Z,8.54
2018-12-04T14:39:17.685Z,8.55
2018-12-04T14:41:48.966Z,8.61
2018-12-04T14:44:18.402Z,8.63
2018-12-04T14:46:47.746Z,8.63
2018-12-04T14:49:17.034Z,8.61
2018-12-04T14:51:47.135Z,8.59
2018-12-04T14:54:16.420Z,8.57
2018-12-04T14:56:45.718Z,8.54
2018-12-04T14:59:14.796Z,8.52
2018-12-04T15:01:44.130Z,8.52
2018-12-04T15:04:13.458Z,8.51
2018-12-04T15:06:43.026Z,8.52
2018-12-04T15:09:12.428Z,8.51
2018-12-04T15:11:41.992Z,8.51
2018-12-04T15:14:11.342Z,8.51
2018-12-04T15:16:41.184Z,8.53
2018-12-04T15:19:10.403Z,8.57
2018-12-04T15:21:39.560Z,8.56
2018-12-04T15:24:08.866Z,8.58
2018-12-04T15:26:38.347Z,8.58
2018-12-04T15:29:07.614Z,8.57
2018-12-04T15:31:37.176Z,8.56
2018-12-04T15:34:06.466Z,8.55
2018-12-04T15:36:35.745Z,8.56
2018-12-04T15:39:07.597Z,8.54
2018-12-04T15:41:39.951Z,8.53
2018-12-04T15:44:09.080Z,8.52
2018-12-04T15:46:38.582Z,8.52
2018-12-04T15:49:07.693Z,8.49
2018-12-04T15:51:36.875Z,8.51
2018-12-04T15:54:06.176Z,8.51
2018-12-04T15:56:36.049Z,8.52
2018-12-04T15:59:05.175Z,8.54
2018-12-04T16:01:34.403Z,8.53
2018-12-04T16:04:03.548Z,8.52
2018-12-04T16:06:32.660Z,8.51
2018-12-04T16:09:01.801Z,8.51
2018-12-04T16:11:32.706Z,8.50
2018-12-04T16:14:02.757Z,8.50
2018-12-04T16:16:32.011Z,8.51
2018-12-04T16:19:02.135Z,8.50
2018-12-04T16:21:32.072Z,8.49
2018-12-04T16:24:01.590Z,8.48
2018-12-04T16:26:30.768Z,8.45
2018-12-04T16:29:00.810Z,8.45
2018-12-04T16:31:30.461Z,8.45
2018-12-04T16:34:00.016Z,8.43
2018-12-04T16:36:29.813Z,8.42
2018-12-04T16:38:58.873Z,8.43
2018-12-04T16:41:28.811Z,8.43
2018-12-04T16:44:01.541Z,8.44
2018-12-04T16:46:33.664Z,8.42
2018-12-04T16:49:02.802Z,8.42
2018-12-04T16:51:31.944Z,8.42
2018-12-04T16:54:01.156Z,8.41
2018-12-04T16:56:30.383Z,8.40
2018-12-04T16:58:59.514Z,8.39
2018-12-04T17:01:29.148Z,8.42
2018-12-04T17:04:01.371Z,8.41
2018-12-04T17:06:30.633Z,8.41
2018-12-04T17:08:59.948Z,8.40
2018-12-04T17:11:29.121Z,8.39
2018-12-04T17:13:58.219Z,8.40
2018-12-04T17:16:27.337Z,8.41
2018-12-04T17:18:56.509Z,8.40
2018-12-04T17:21:25.625Z,8.40
2018-12-04T17:23:54.721Z,8.40
2018-12-04T17:26:23.824Z,8.38
2018-12-04T17:28:53.263Z,8.39
2018-12-04T17:31:22.451Z,8.38
2018-12-04T17:33:51.537Z,8.40
2018-12-04T17:36:20.626Z,8.41
2018-12-04T17:38:49.794Z,8.41
2018-12-04T17:41:19.309Z,8.43
2018-12-04T17:43:48.380Z,8.41
2018-12-04T17:46:17.462Z,8.41
2018-12-04T17:48:46.613Z,8.41
2018-12-04T17:51:15.927Z,8.42
2018-12-04T17:53:45.532Z,8.42
2018-12-04T17:56:14.581Z,8.42
2018-12-04T17:58:43.628Z,8.40
2018-12-04T18:01:12.889Z,8.38
2018-12-04T18:03:42.000Z,8.37
2018-12-04T18:06:11.064Z,8.36
2018-12-04T18:08:40.212Z,8.33
2018-12-04T18:11:09.389Z,8.32
2018-12-04T18:13:38.542Z,8.31
2018-12-04T18:16:07.635Z,8.30
2018-12-04T18:18:36.898Z,8.30
2018-12-04T18:21:06.065Z,8.31
2018-12-04T18:23:36.422Z,8.29
2018-12-04T18:26:05.519Z,8.31
2018-12-04T18:28:34.754Z,8.30
2018-12-04T18:31:03.884Z,8.32
2018-12-04T18:33:33.040Z,8.31
2018-12-04T18:36:02.484Z,8.30
2018-12-04T18:38:31.648Z,8.27
2018-12-04T18:41:00.727Z,8.26
2018-12-04T18:43:29.861Z,8.23
2018-12-04T18:45:59.218Z,8.20
2018-12-04T18:48:28.293Z,8.20
2018-12-04T18:50:57.450Z,8.20
2018-12-04T18:53:26.582Z,8.21
2018-12-04T18:55:56.838Z,8.23
2018-12-04T18:58:25.916Z,8.25
2018-12-04T19:00:55.059Z,8.24
2018-12-04T19:03:24.194Z,8.24
2018-12-04T19:05:53.921Z,8.22
2018-12-04T19:08:27.077Z,8.22
2018-12-04T19:10:56.192Z,8.22
2018-12-04T19:13:25.408Z,8.23
2018-12-04T19:15:54.582Z,8.24
2018-12-04T19:18:23.745Z,8.25
2018-12-04T19:20:53.047Z,8.26
2018-12-04T19:23:22.179Z,8.28
2018-12-04T19:25:51.231Z,8.29
2018-12-04T19:28:21.170Z,8.29
2018-12-04T19:30:50.455Z,8.32
2018-12-04T19:33:19.803Z,8.34
2018-12-04T19:35:49.058Z,8.34
2018-12-04T19:38:18.795Z,8.36
2018-12-04T19:40:48.508Z,8.38
2018-12-04T19:43:17.767Z,8.40
2018-12-04T19:45:46.797Z,8.41
2018-12-04T19:48:15.843Z,8.42
2018-12-04T19:50:44.936Z,8.43
2018-12-04T19:53:14.264Z,8.44
2018-12-04T19:55:43.381Z,8.44
2018-12-04T19:58:12.914Z,8.44
2018-12-04T20:00:41.969Z,8.44
2018-12-04T20:03:10.967Z,8.45
2018-12-04T20:05:40.063Z,8.44
2018-12-04T20:08:09.140Z,8.44
2018-12-04T20:10:38.213Z,8.43
2018-12-04T20:13:07.273Z,8.43
2018-12-04T20:15:36.367Z,8.42
2018-12-04T20:18:05.472Z,8.42
2018-12-04T20:20:34.596Z,8.43
2018-12-04T20:23:03.695Z,8.43
2018-12-04T20:25:32.827Z,8.44
2018-12-04T20:28:02.024Z,8.45
2018-12-04T20:30:31.235Z,8.45
2018-12-04T20:33:00.311Z,8.48
2018-12-04T20:35:29.460Z,8.48
2018-12-04T20:37:58.498Z,8.50
2018-12-04T20:40:31.494Z,8.52
2018-12-04T20:42:56.768Z,8.53
2018-12-04T20:45:25.870Z,8.53
2018-12-04T20:47:54.931Z,8.52
2018-12-04T20:50:24.073Z,8.54
2018-12-04T20:52:53.239Z,8.53
2018-12-04T20:55:23.630Z,8.54
2018-12-04T20:57:52.758Z,8.54
2018-12-04T21:00:32.610Z,8.54
2018-12-04T21:03:01.916Z,8.56
2018-12-04T21:05:31.013Z,8.55
2018-12-04T21:08:00.145Z,8.54
2018-12-04T21:10:29.239Z,8.53
2018-12-04T21:12:59.187Z,8.52
2018-12-04T21:15:28.279Z,8.51
2018-12-04T21:17:57.468Z,8.52
2018-12-04T21:20:26.528Z,8.52
2018-12-04T21:22:55.730Z,8.50
2018-12-04T21:25:24.907Z,8.49
2018-12-04T21:27:58.943Z,8.47
2018-12-04T21:30:33.254Z,8.44
2018-12-04T21:33:10.984Z,8.42
2018-12-04T21:35:45.129Z,8.41
2018-12-04T21:38:19.295Z,8.38
2018-12-04T21:40:55.244Z,8.37
2018-12-04T21:45:36.966Z,8.34
2018-12-04T21:48:08.491Z,8.29
2018-12-04T21:50:37.591Z,8.27
2018-12-04T21:53:08.624Z,8.25
2018-12-04T21:55:37.993Z,8.25
2018-12-04T21:58:07.303Z,8.25
2018-12-04T22:00:36.443Z,8.27
2018-12-04T22:03:05.610Z,8.29
2018-12-04T22:05:34.720Z,8.31
2018-12-04T22:08:03.930Z,8.32
2018-12-04T22:10:33.119Z,8.34
2018-12-04T22:13:02.293Z,8.36
2018-12-04T22:15:31.424Z,8.38
2018-12-04T22:18:00.501Z,8.40
2018-12-04T22:20:29.607Z,8.41
2018-12-04T22:23:01.974Z,8.42
2018-12-04T22:25:31.174Z,8.42
2018-12-04T22:28:00.377Z,8.43
2018-12-04T22:30:29.403Z,8.44
2018-12-04T22:32:58.477Z,8.44
2018-12-04T22:35:27.564Z,8.45
2018-12-04T22:37:56.650Z,8.46
2018-12-04T22:40:25.833Z,8.45
2018-12-04T22:42:54.976Z,8.47
2018-12-04T22:45:26.308Z,8.49
2018-12-04T22:47:56.404Z,8.51
2018-12-04T22:50:25.575Z,8.52
2018-12-04T22:52:54.616Z,8.53
2018-12-04T22:55:23.810Z,8.55
2018-12-04T22:57:52.896Z,8.57
2018-12-04T23:00:33.131Z,8.60
2018-12-04T23:03:02.158Z,8.63
2018-12-04T23:05:31.246Z,8.65
2018-12-04T23:08:00.359Z,8.67
2018-12-04T23:10:29.551Z,8.68
2018-12-04T23:12:58.641Z,8.69
2018-12-04T23:15:27.759Z,8.71
2018-12-04T23:17:56.837Z,8.74
2018-12-04T23:20:26.131Z,8.76
2018-12-04T23:23:14.146Z,8.78
2018-12-04T23:25:59.664Z,8.81
2018-12-04T23:28:45.739Z,8.83
2018-12-04T23:31:30.857Z,8.87
2018-12-04T23:34:19.388Z,8.89
2018-12-04T23:36:49.057Z,8.93
2018-12-04T23:39:38.163Z,8.95
2018-12-04T23:42:23.136Z,8.98
2018-12-04T23:45:10.449Z,9.00
2018-12-04T23:47:54.929Z,9.02
2018-12-04T23:50:41.173Z,9.05
2018-12-04T23:53:27.842Z,9.09
2018-12-04T23:55:57.166Z,9.13
2018-12-04T23:58:42.811Z,9.15
